createdAt,value
2018-09-22T00:00:28.232Z,12.40
2018-09-22T00:02:57.893Z,12.40
2018-09-22T00:05:27.726Z,12.40
2018-09-22T00:07:57.726Z,12.40
2018-09-22T00:10:27.351Z,12.40
2018-09-22T00:12:57.047Z,12.40
2018-09-22T00:15:26.975Z,12.40
2018-09-22T00:17:56.755Z,12.30
2018-09-22T00:20:26.447Z,12.40
2018-09-22T00:22:56.380Z,12.30
2018-09-22T00:25:26.328Z,12.40
2018-09-22T00:27:56.655Z,12.40
2018-09-22T00:30:26.685Z,12.40
2018-09-22T00:32:56.413Z,12.40
2018-09-22T00:35:26.139Z,12.40
2018-09-22T00:37:56.359Z,12.40
2018-09-22T00:40:26.017Z,12.40
2018-09-22T00:42:56.056Z,12.40
2018-09-22T00:45:30.726Z,12.40
2018-09-22T00:48:00.466Z,12.40
2018-09-22T00:50:30.270Z,12.40
2018-09-22T00:53:00.125Z,12.40
2018-09-22T00:55:29.778Z,12.40
2018-09-22T00:58:00.472Z,12.40
2018-09-22T01:00:30.500Z,12.30
2018-09-22T01:03:00.151Z,12.30
2018-09-22T01:05:29.854Z,12.30
2018-09-22T01:07:59.877Z,12.30
2018-09-22T01:10:29.550Z,12.30
2018-09-22T01:12:59.772Z,12.30
2018-09-22T01:15:29.643Z,12.30
2018-09-22T01:17:59.329Z,12.30
2018-09-22T01:20:28.946Z,12.20
2018-09-22T01:22:59.241Z,12.20
2018-09-22T01:25:28.865Z,12.30
2018-09-22T01:27:58.954Z,12.20
2018-09-22T01:30:29.079Z,12.20
2018-09-22T01:32:58.747Z,12.20
2018-09-22T01:35:28.348Z,12.20
2018-09-22T01:37:58.592Z,12.20
2018-09-22T01:40:28.227Z,12.20
2018-09-22T01:42:57.965Z,12.20
2018-09-22T01:45:27.910Z,12.20
2018-09-22T01:47:57.522Z,12.20
2018-09-22T01:50:27.277Z,12.20
2018-09-22T01:52:57.388Z,12.20
2018-09-22T01:55:27.210Z,12.20
2018-09-22T01:57:57.278Z,12.20
2018-09-22T02:00:27.232Z,12.20
2018-09-22T02:02:57.240Z,12.20
2018-09-22T02:05:27.064Z,12.20
2018-09-22T02:07:57.127Z,12.20
2018-09-22T02:10:26.871Z,12.20
2018-09-22T02:12:56.513Z,12.20
2018-09-22T02:15:26.469Z,12.20
2018-09-22T02:17:56.116Z,12.20
2018-09-22T02:20:25.769Z,12.20
2018-09-22T02:22:55.867Z,12.20
2018-09-22T02:25:25.666Z,12.20
2018-09-22T02:27:55.487Z,12.20
2018-09-22T02:30:25.895Z,12.20
2018-09-22T02:32:55.757Z,12.20
2018-09-22T02:35:25.387Z,12.20
2018-09-22T02:37:55.375Z,12.20
2018-09-22T02:40:25.174Z,12.20
2018-09-22T02:42:54.837Z,12.20
2018-09-22T02:45:24.662Z,12.20
2018-09-22T02:47:54.439Z,12.20
2018-09-22T02:50:24.218Z,12.20
2018-09-22T02:52:54.244Z,12.20
2018-09-22T02:55:23.982Z,12.10
2018-09-22T02:57:53.679Z,12.20
2018-09-22T03:00:28.298Z,12.20
2018-09-22T03:02:58.053Z,12.20
2018-09-22T03:05:27.925Z,12.10
2018-09-22T03:08:38.379Z,12.10
2018-09-22T03:11:19.262Z,12.10
2018-09-22T03:17:10.254Z,12.10
2018-09-22T03:19:54.166Z,12.10
2018-09-22T03:22:24.064Z,12.10
2018-09-22T03:24:53.394Z,12.10
2018-09-22T03:27:22.996Z,12.10
2018-09-22T03:36:45.786Z,12.10
2018-09-22T03:39:15.195Z,12.00
2018-09-22T03:42:14.758Z,12.00
2018-09-22T03:48:27.997Z,12.00
2018-09-22T03:51:20.081Z,12.00
2018-09-22T03:53:50.518Z,12.10
2018-09-22T03:56:21.105Z,12.10
2018-09-22T03:58:52.177Z,12.10
2018-09-22T04:01:22.573Z,12.10
2018-09-22T04:03:52.160Z,12.10
2018-09-22T04:06:21.945Z,12.10
2018-09-22T04:08:51.576Z,12.10
2018-09-22T04:11:21.287Z,12.10
2018-09-22T04:13:54.083Z,12.10
2018-09-22T04:16:22.646Z,12.10
2018-09-22T04:18:51.085Z,12.10
2018-09-22T04:21:20.245Z,12.10
2018-09-22T04:23:49.118Z,12.10
2018-09-22T04:26:17.834Z,12.10
2018-09-22T04:28:46.729Z,12.10
2018-09-22T04:31:15.165Z,12.10
2018-09-22T04:33:43.665Z,12.10
2018-09-22T04:36:12.408Z,12.10
2018-09-22T04:38:41.147Z,12.10
2018-09-22T04:41:09.739Z,12.10
2018-09-22T04:43:38.336Z,12.10
2018-09-22T04:46:06.803Z,12.00
2018-09-22T04:48:35.404Z,12.10
2018-09-22T04:51:04.136Z,12.10
2018-09-22T04:53:32.549Z,12.10
2018-09-22T04:56:01.014Z,12.10
2018-09-22T04:58:29.831Z,12.10
2018-09-22T05:00:58.264Z,12.10
2018-09-22T05:03:26.733Z,12.10
2018-09-22T05:05:55.312Z,12.00
2018-09-22T05:08:23.717Z,12.00
2018-09-22T05:10:52.215Z,12.00
2018-09-22T05:19:35.684Z,11.90
2018-09-22T05:22:04.380Z,11.90
2018-09-22T05:24:32.757Z,11.90
2018-09-22T05:27:01.319Z,11.90
2018-09-22T05:29:46.106Z,11.90
2018-09-22T05:35:22.024Z,11.80
2018-09-22T05:37:50.463Z,11.80
2018-09-22T05:40:29.935Z,11.80
2018-09-22T05:42:58.393Z,11.80
2018-09-22T05:45:27.915Z,11.80
2018-09-22T05:47:56.759Z,11.90
2018-09-22T05:50:25.193Z,11.90
2018-09-22T05:52:53.807Z,11.90
2018-09-22T05:55:23.501Z,11.90
2018-09-22T05:57:51.931Z,11.90
2018-09-22T06:00:20.444Z,11.90
2018-09-22T06:02:49.572Z,11.90
2018-09-22T06:05:18.270Z,12.00
2018-09-22T06:07:47.707Z,12.00
2018-09-22T06:10:16.266Z,12.00
2018-09-22T06:12:44.788Z,12.00
2018-09-22T06:15:13.367Z,12.00
2018-09-22T06:17:42.012Z,12.00
2018-09-22T06:20:10.775Z,12.00
2018-09-22T06:22:39.400Z,12.00
2018-09-22T06:25:08.044Z,12.10
2018-09-22T06:27:36.540Z,12.10
2018-09-22T06:30:05.005Z,12.10
2018-09-22T06:32:33.858Z,12.10
2018-09-22T06:35:02.252Z,12.00
2018-09-22T06:37:30.716Z,12.00
2018-09-22T06:39:59.450Z,12.00
2018-09-22T06:42:28.991Z,12.10
2018-09-22T06:44:57.508Z,12.10
2018-09-22T06:47:26.383Z,12.10
2018-09-22T06:49:54.904Z,12.10
2018-09-22T06:52:23.409Z,12.10
2018-09-22T06:54:52.336Z,12.10
2018-09-22T06:57:20.701Z,12.20
2018-09-22T06:59:49.690Z,12.20
2018-09-22T07:02:18.734Z,12.20
2018-09-22T07:04:47.350Z,12.20
2018-09-22T07:07:16.794Z,12.20
2018-09-22T07:09:45.396Z,12.30
2018-09-22T07:12:13.818Z,12.30
2018-09-22T07:14:42.347Z,12.30
2018-09-22T07:17:11.433Z,12.30
2018-09-22T07:19:39.953Z,12.30
2018-09-22T07:22:13.465Z,12.40
2018-09-22T07:24:42.262Z,12.30
2018-09-22T07:27:10.784Z,12.40
2018-09-22T07:29:39.422Z,12.40
2018-09-22T07:32:07.997Z,12.40
2018-09-22T07:34:36.592Z,12.40
2018-09-22T07:37:05.002Z,12.40
2018-09-22T07:39:33.973Z,12.40
2018-09-22T07:42:02.317Z,12.40
2018-09-22T07:44:31.276Z,12.40
2018-09-22T07:46:59.880Z,12.50
2018-09-22T07:49:28.361Z,12.50
2018-09-22T07:51:56.866Z,12.50
2018-09-22T07:54:25.728Z,12.50
2018-09-22T07:56:54.173Z,12.60
2018-09-22T07:59:22.536Z,12.60
2018-09-22T08:01:51.283Z,12.60
2018-09-22T08:04:20.391Z,12.60
2018-09-22T08:06:49.657Z,12.60
2018-09-22T08:09:18.576Z,12.60
2018-09-22T08:11:47.953Z,12.60
2018-09-22T08:14:16.349Z,12.60
2018-09-22T08:16:45.203Z,12.60
2018-09-22T08:19:13.736Z,12.60
2018-09-22T08:21:42.135Z,12.60
2018-09-22T08:24:10.823Z,12.60
2018-09-22T08:26:39.432Z,12.60
2018-09-22T08:29:08.149Z,12.60
2018-09-22T08:31:37.878Z,12.70
2018-09-22T08:34:06.698Z,12.70
2018-09-22T08:36:35.321Z,12.70
2018-09-22T08:39:04.069Z,12.70
2018-09-22T08:41:32.903Z,12.70
2018-09-22T08:44:01.419Z,12.70
2018-09-22T08:46:30.112Z,12.60
2018-09-22T08:48:58.632Z,12.60
2018-09-22T08:51:26.980Z,12.70
2018-09-22T08:53:56.128Z,12.70
2018-09-22T08:56:24.548Z,12.60
2018-09-22T08:58:53.087Z,12.60
2018-09-22T09:01:22.068Z,12.60
2018-09-22T09:03:50.408Z,12.70
2018-09-22T09:06:19.322Z,12.70
2018-09-22T09:08:49.830Z,12.70
2018-09-22T09:11:18.769Z,12.80
2018-09-22T09:13:48.234Z,12.80
2018-09-22T09:16:17.973Z,12.90
2018-09-22T09:28:08.860Z,13.00
2018-09-22T09:30:37.299Z,13.00
2018-09-22T09:33:05.763Z,13.00
2018-09-22T09:37:00.255Z,13.10
2018-09-22T09:39:28.732Z,13.10
2018-09-22T09:41:57.149Z,13.20
2018-09-22T09:44:25.925Z,13.20
2018-09-22T09:46:54.408Z,13.30
2018-09-22T09:49:22.862Z,13.30
2018-09-22T09:51:52.768Z,13.40
2018-09-22T09:54:21.529Z,13.40
2018-09-22T09:56:52.761Z,13.40
2018-09-22T09:59:23.262Z,13.50
2018-09-22T10:01:51.730Z,13.50
2018-09-22T10:04:21.255Z,13.60
2018-09-22T10:06:49.974Z,13.60
2018-09-22T10:09:18.818Z,13.70
2018-09-22T10:11:47.385Z,13.70
2018-09-22T10:14:16.190Z,13.80
2018-09-22T10:16:44.571Z,13.80
2018-09-22T10:19:13.594Z,13.90
2018-09-22T10:21:42.535Z,13.90
2018-09-22T10:24:11.018Z,13.90
2018-09-22T10:26:39.470Z,14.00
2018-09-22T10:29:08.169Z,14.00
2018-09-22T10:31:37.267Z,14.00
2018-09-22T10:34:05.848Z,14.00
2018-09-22T10:36:35.549Z,14.00
2018-09-22T10:39:04.950Z,14.00
2018-09-22T10:41:33.466Z,14.10
2018-09-22T10:44:02.370Z,14.10
2018-09-22T10:46:30.761Z,14.20
2018-09-22T10:48:59.633Z,14.20
2018-09-22T10:51:28.371Z,14.30
2018-09-22T10:53:56.933Z,14.30
2018-09-22T10:56:25.358Z,14.30
2018-09-22T10:58:54.616Z,14.40
2018-09-22T11:01:23.116Z,14.50
2018-09-22T11:03:51.772Z,14.50
2018-09-22T11:06:21.612Z,14.50
2018-09-22T11:08:50.374Z,14.60
2018-09-22T11:11:19.581Z,14.60
2018-09-22T11:13:48.992Z,14.70
2018-09-22T11:16:18.932Z,14.70
2018-09-22T11:18:48.650Z,14.70
2018-09-22T11:21:17.731Z,14.70
2018-09-22T11:23:46.354Z,14.80
2018-09-22T11:26:14.933Z,14.80
2018-09-22T11:28:43.716Z,14.80
2018-09-22T11:31:12.213Z,14.80
2018-09-22T11:33:40.773Z,14.80
2018-09-22T11:36:09.231Z,14.80
2018-09-22T11:38:37.606Z,14.90
2018-09-22T11:41:06.101Z,14.90
2018-09-22T11:43:34.918Z,15.00
2018-09-22T11:46:03.490Z,15.00
2018-09-22T11:48:32.046Z,15.10
2018-09-22T11:51:02.949Z,15.10
2018-09-22T11:53:31.426Z,15.20
2018-09-22T11:55:59.980Z,15.20
2018-09-22T11:58:28.747Z,15.30
2018-09-22T12:00:59.319Z,15.30
2018-09-22T12:03:27.776Z,15.30
2018-09-22T12:05:56.568Z,15.30
2018-09-22T12:08:25.127Z,15.40
2018-09-22T12:10:53.700Z,15.50
2018-09-22T12:13:23.137Z,15.60
2018-09-22T12:15:51.624Z,15.70
2018-09-22T12:18:20.998Z,15.80
2018-09-22T12:20:50.982Z,15.90
2018-09-22T12:23:21.121Z,15.90
2018-09-22T12:25:50.807Z,16.00
2018-09-22T12:28:20.266Z,16.00
2018-09-22T12:30:49.740Z,16.10
2018-09-22T12:33:18.475Z,16.10
2018-09-22T12:35:47.440Z,16.20
2018-09-22T12:38:15.835Z,16.20
2018-09-22T12:40:44.329Z,16.30
2018-09-22T12:43:12.998Z,16.30
2018-09-22T12:45:41.471Z,16.30
2018-09-22T12:48:09.991Z,16.40
2018-09-22T12:50:38.548Z,16.30
2018-09-22T12:53:07.083Z,16.30
2018-09-22T12:55:35.684Z,16.40
2018-09-22T12:58:04.426Z,16.40
2018-09-22T13:00:32.909Z,16.40
2018-09-22T13:03:01.379Z,16.40
2018-09-22T13:05:30.154Z,16.40
2018-09-22T13:07:58.689Z,16.40
2018-09-22T13:10:27.102Z,16.50
2018-09-22T13:12:55.925Z,16.50
2018-09-22T13:15:24.531Z,16.50
2018-09-22T13:17:52.980Z,16.50
2018-09-22T13:20:21.814Z,16.50
2018-09-22T13:22:50.665Z,16.50
2018-09-22T13:25:20.298Z,16.50
2018-09-22T13:27:49.324Z,16.50
2018-09-22T13:30:18.797Z,16.40
2018-09-22T13:32:48.063Z,16.40
2018-09-22T13:35:16.673Z,16.40
2018-09-22T13:37:45.250Z,16.30
2018-09-22T13:40:13.644Z,16.30
2018-09-22T13:42:43.247Z,16.30
2018-09-22T13:45:12.013Z,16.20
2018-09-22T13:47:40.460Z,16.20
2018-09-22T13:50:09.262Z,16.20
2018-09-22T13:52:37.637Z,16.10
2018-09-22T13:55:06.285Z,16.10
2018-09-22T13:57:35.168Z,16.00
2018-09-22T14:00:03.684Z,16.00
2018-09-22T14:02:32.066Z,16.00
2018-09-22T14:05:00.747Z,16.00
2018-09-22T14:07:29.211Z,16.10
2018-09-22T14:09:57.690Z,16.10
2018-09-22T14:12:26.690Z,16.10
2018-09-22T14:14:55.081Z,16.10
2018-09-22T14:17:24.108Z,16.10
2018-09-22T14:19:52.801Z,16.10
2018-09-22T14:22:22.165Z,16.10
2018-09-22T14:28:07.783Z,16.00
2018-09-22T14:30:46.819Z,16.00
2018-09-22T14:33:15.719Z,16.00
2018-09-22T14:35:48.332Z,16.00
2018-09-22T14:38:23.874Z,16.00
2018-09-22T14:40:52.514Z,16.00
2018-09-22T14:43:21.276Z,15.90
2018-09-22T14:45:51.250Z,15.90
2018-09-22T14:48:25.519Z,15.90
2018-09-22T14:50:54.816Z,15.90
2018-09-22T14:53:30.083Z,15.90
2018-09-22T14:56:04.814Z,15.90
2018-09-22T14:58:33.466Z,15.80
2018-09-22T15:01:01.955Z,15.70
2018-09-22T15:03:30.603Z,15.60
2018-09-22T15:06:00.140Z,15.60
2018-09-22T15:08:28.646Z,15.60
2018-09-22T15:10:57.604Z,15.50
2018-09-22T15:13:26.166Z,15.50
2018-09-22T15:15:54.744Z,15.50
2018-09-22T15:18:23.710Z,15.40
2018-09-22T15:20:53.181Z,15.40
2018-09-22T15:23:21.694Z,15.30
2018-09-22T15:25:50.915Z,15.30
2018-09-22T15:28:19.937Z,15.30
2018-09-22T15:30:49.020Z,15.30
2018-09-22T15:33:18.113Z,15.30
2018-09-22T15:35:46.674Z,15.20
2018-09-22T15:38:15.187Z,15.20
2018-09-22T15:40:44.281Z,15.20
2018-09-22T15:43:12.816Z,15.20
2018-09-22T15:45:41.407Z,15.20
2018-09-22T15:48:10.454Z,15.20
2018-09-22T15:50:38.977Z,15.20
2018-09-22T15:53:07.576Z,15.20
2018-09-22T15:55:36.449Z,15.20
2018-09-22T15:58:05.539Z,15.20
2018-09-22T16:00:34.916Z,15.10
2018-09-22T16:03:06.773Z,15.10
2018-09-22T16:05:35.319Z,15.00
2018-09-22T16:08:04.228Z,15.00
2018-09-22T16:10:32.835Z,15.00
2018-09-22T16:13:01.522Z,15.00
2018-09-22T16:15:30.126Z,14.90
2018-09-22T16:17:59.176Z,14.90
2018-09-22T16:20:27.732Z,14.90
2018-09-22T16:22:56.340Z,14.90
2018-09-22T16:25:25.077Z,14.90
2018-09-22T16:27:54.042Z,14.80
2018-09-22T16:30:22.599Z,14.90
2018-09-22T16:32:51.550Z,14.80
2018-09-22T16:35:24.795Z,14.80
2018-09-22T16:37:53.741Z,14.70
2018-09-22T16:40:22.419Z,14.70
2018-09-22T16:42:50.921Z,14.70
2018-09-22T16:45:20.459Z,14.70
2018-09-22T16:47:49.308Z,14.60
2018-09-22T16:50:18.347Z,14.60
2018-09-22T16:52:48.628Z,14.60
2018-09-22T16:55:17.312Z,14.50
2018-09-22T16:57:45.983Z,14.50
2018-09-22T17:00:15.123Z,14.60
2018-09-22T17:02:43.660Z,14.50
2018-09-22T17:05:12.301Z,14.50
2018-09-22T17:07:41.735Z,14.50
2018-09-22T17:10:10.241Z,14.50
2018-09-22T17:12:39.005Z,14.50
2018-09-22T17:15:08.684Z,14.50
2018-09-22T17:17:37.195Z,14.50
2018-09-22T17:20:05.829Z,14.50
2018-09-22T17:22:34.687Z,14.50
2018-09-22T17:25:03.163Z,14.50
2018-09-22T17:27:31.869Z,14.50
2018-09-22T17:30:01.386Z,14.40
2018-09-22T17:32:29.887Z,14.40
2018-09-22T17:34:58.534Z,14.40
2018-09-22T17:37:27.516Z,14.40
2018-09-22T17:39:56.175Z,14.40
2018-09-22T17:42:24.694Z,14.40
2018-09-22T17:44:53.485Z,14.40
2018-09-22T17:47:24.094Z,14.40
2018-09-22T17:49:52.824Z,14.40
2018-09-22T17:52:21.636Z,14.30
2018-09-22T17:54:50.450Z,14.30
2018-09-22T17:57:26.324Z,14.20
2018-09-22T17:59:55.133Z,14.20
2018-09-22T18:02:24.406Z,14.10
2018-09-22T18:04:53.227Z,14.00
2018-09-22T18:07:22.050Z,13.90
2018-09-22T18:09:50.598Z,13.90
2018-09-22T18:12:19.883Z,13.80
2018-09-22T18:14:50.849Z,13.70
2018-09-22T18:17:19.912Z,13.70
2018-09-22T18:19:49.225Z,13.60
2018-09-22T18:22:28.857Z,13.60
2018-09-22T18:25:00.792Z,13.60
2018-09-22T18:27:29.599Z,13.70
2018-09-22T18:29:58.554Z,13.70
2018-09-22T18:32:27.275Z,13.70
2018-09-22T18:34:55.804Z,13.80
2018-09-22T18:37:25.116Z,13.80
2018-09-22T18:39:53.670Z,13.80
2018-09-22T18:42:22.234Z,13.80
2018-09-22T18:44:51.449Z,13.70
2018-09-22T18:47:20.381Z,13.70
2018-09-22T18:49:49.023Z,13.70
2018-09-22T18:52:18.259Z,13.60
2018-09-22T18:54:46.900Z,13.60
2018-09-22T18:57:15.435Z,13.60
2018-09-22T18:59:44.192Z,13.50
2018-09-22T19:02:12.726Z,13.50
2018-09-22T19:04:41.713Z,13.50
2018-09-22T19:07:10.526Z,13.50
2018-09-22T19:09:39.227Z,13.50
2018-09-22T19:12:07.768Z,13.50
2018-09-22T19:15:45.148Z,13.40
2018-09-22T19:18:20.788Z,13.50
2018-09-22T19:20:55.189Z,13.40
2018-09-22T19:23:27.543Z,13.40
2018-09-22T19:25:59.867Z,13.40
2018-09-22T19:28:34.831Z,13.40
2018-09-22T19:31:09.304Z,13.40
2018-09-22T19:34:12.121Z,13.40
2018-09-22T19:36:49.854Z,13.40
2018-09-22T19:40:25.675Z,13.30
2018-09-22T19:43:04.295Z,13.30
2018-09-22T19:45:37.025Z,13.20
2018-09-22T19:49:12.156Z,13.20
2018-09-22T19:51:44.697Z,13.20
2018-09-22T19:54:13.377Z,13.10
2018-09-22T19:56:42.039Z,13.10
2018-09-22T19:59:10.736Z,13.10
2018-09-22T20:01:39.525Z,13.10
2018-09-22T20:04:08.196Z,13.10
2018-09-22T20:06:37.120Z,13.00
2018-09-22T20:09:06.717Z,13.00
2018-09-22T20:11:35.451Z,13.00
2018-09-22T20:14:04.274Z,13.00
2018-09-22T20:16:33.358Z,13.00
2018-09-22T20:19:02.180Z,13.00
2018-09-22T20:21:31.041Z,13.00
2018-09-22T20:24:00.444Z,13.00
2018-09-22T20:26:29.094Z,13.00
2018-09-22T20:28:57.660Z,13.10
2018-09-22T20:31:26.478Z,13.00
2018-09-22T20:33:55.214Z,13.00
2018-09-22T20:36:23.860Z,12.90
2018-09-22T20:38:53.798Z,12.90
2018-09-22T20:41:22.341Z,12.90
2018-09-22T20:43:50.852Z,12.90
2018-09-22T20:46:21.633Z,12.90
2018-09-22T20:48:51.200Z,12.90
2018-09-22T20:51:19.959Z,12.90
2018-09-22T20:53:51.459Z,12.90
2018-09-22T20:56:20.564Z,12.90
2018-09-22T20:58:50.272Z,12.90
2018-09-22T21:01:19.470Z,12.80
2018-09-22T21:03:49.240Z,12.80
2018-09-22T21:06:18.375Z,12.80
2018-09-22T21:08:47.913Z,12.70
2018-09-22T21:11:16.444Z,12.70
2018-09-22T21:13:45.233Z,12.70
2018-09-22T21:16:13.844Z,12.70
2018-09-22T21:18:42.572Z,12.70
2018-09-22T21:21:11.422Z,12.70
2018-09-22T21:23:40.161Z,12.70
2018-09-22T21:26:08.906Z,12.60
2018-09-22T21:28:37.990Z,12.60
2018-09-22T21:31:06.691Z,12.60
2018-09-22T21:33:35.226Z,12.50
2018-09-22T21:36:04.332Z,12.40
2018-09-22T21:38:32.876Z,12.40
2018-09-22T21:41:01.371Z,12.40
2018-09-22T21:43:30.153Z,12.40
2018-09-22T21:45:58.881Z,12.40
2018-09-22T21:48:27.627Z,12.40
2018-09-22T21:50:56.257Z,12.40
2018-09-22T21:53:24.959Z,12.40
2018-09-22T21:55:53.620Z,12.40
2018-09-22T21:58:22.668Z,12.30
2018-09-22T22:00:53.377Z,12.30
2018-09-22T22:03:23.168Z,12.30
2018-09-22T22:05:51.919Z,12.30
2018-09-22T22:08:20.596Z,12.30
2018-09-22T22:10:49.816Z,12.20
2018-09-22T22:13:19.252Z,12.20
2018-09-22T22:15:48.605Z,12.20
2018-09-22T22:18:17.284Z,12.20
2018-09-22T22:20:46.353Z,12.20
2018-09-22T22:23:15.023Z,12.20
2018-09-22T22:25:43.586Z,12.20
2018-09-22T22:28:12.730Z,12.10
2018-09-22T22:30:41.468Z,12.10
2018-09-22T22:33:09.998Z,12.00
2018-09-22T22:35:38.940Z,12.00
2018-09-22T22:38:07.623Z,12.00
2018-09-22T22:40:36.364Z,12.00
2018-09-22T22:43:05.247Z,12.00
2018-09-22T22:45:33.835Z,12.00
2018-09-22T22:48:02.397Z,12.00
2018-09-22T22:50:31.394Z,12.00
2018-09-22T22:53:00.037Z,11.90
2018-09-22T22:55:28.595Z,11.90
2018-09-22T22:57:57.407Z,11.90
2018-09-22T23:00:26.113Z,11.90
2018-09-22T23:02:54.689Z,11.90
2018-09-22T23:05:23.602Z,11.90
2018-09-22T23:07:52.150Z,11.90
2018-09-22T23:10:20.856Z,11.90
2018-09-22T23:12:50.332Z,11.90
2018-09-22T23:15:19.263Z,11.90
2018-09-22T23:17:48.131Z,11.80
2018-09-22T23:20:16.746Z,11.80
2018-09-22T23:22:45.537Z,11.80
2018-09-22T23:25:14.077Z,11.80
2018-09-22T23:27:42.839Z,11.80
2018-09-22T23:30:11.437Z,11.80
2018-09-22T23:32:40.155Z,11.80
2018-09-22T23:35:08.986Z,11.80
2018-09-22T23:37:38.039Z,11.70
2018-09-22T23:40:06.745Z,11.70
2018-09-22T23:42:35.695Z,11.80
2018-09-22T23:45:04.519Z,11.80
2018-09-22T23:47:33.172Z,11.70
2018-09-22T23:50:01.910Z,11.70
2018-09-22T23:52:30.432Z,11.70
2018-09-22T23:54:58.994Z,11.70
2018-09-22T23:57:28.699Z,11.70
2018-09-22T23:59:57.338Z,11.70
